Hua Hin, Thailand
Current Conditions -  °F | °C
As of 8:30 PM on Friday 24 Oct 2014 (Local Time) from VTBU Reporting Station
Broken Clouds Broken Clouds  
Wind Chill: 75°   Ceiling: 11000
Heat Index: 75°   Visibility: 3mi
Dew Point: 73°   Wind: 10mph
Humidity: 94%   Direction: 350°N
Pressure: 29.85"   Gusts: NA
Location:  12.57°N, 99.95°E
Report Text: VTBU 241330Z 35009KT 5000 TSBR FEW020CB SCT040 BKN110 24/23 Q1011 A2987 TS NW-N LTG
Loading
Personal Weather Stations






























Interactive Weather Map New forecast layout! Learn more

10-Day Weather Forecast

Advertisements
Track Severe Weather on mobile